Flight Track Log - Related Links

Times and Time Zones

All times are in EDT time to prevent confusion due to time zone crossing. See the CCA1223 flight status page for this flight to view local times or setup timezone preferences in your user account.

Time Position Orientation Groundspeed Altitude Reporting Facility
EDT Latitude Longitude Course Direction KTS MPH feet Rate Location/Type
Wed 01:02:07 AM 39.9460 116.6100 183° South 244 281 3,600  Level FlightAware ADS-B
Wed 01:03:17 AM 39.8670 116.6060 182° South 252 290 7,200 2,800 Climbing FlightAware ADS-B
Wed 01:04:07 AM 39.8570 116.6060 180° South 252 290 9,200 1,500 Climbing FlightAware ADS-B
Wed 01:04:37 AM 39.8280 116.6040 183° South 252 290 9,200  Level FlightAware ADS-B
Wed 01:05:07 AM 39.7980 116.6020 183° South 252 290 9,200  Level FlightAware ADS-B
Wed 01:05:27 AM 39.7780 116.6000 184° South 252 290 9,200 2,222 Level FlightAware ADS-B
Wed 01:07:22 AM 39.6500 116.4100 229° Southwest 352 405 14,200 2,700 Climbing FlightAware ADS-B
Wed 01:08:07 AM 39.6530 116.3210 273° West 352 405 16,400 1,467 Climbing FlightAware ADS-B
Wed 01:08:52 AM 39.6580 116.2330 274° West 352 405 16,400 2,713 Level FlightAware ADS-B
Wed 01:10:02 AM 39.6590 116.1570 271° West 351 404 21,600 2,891 Climbing FlightAware ADS-B
Wed 01:10:42 AM 39.6650 115.9910 273° West 365 420 21,700 75 Climbing FlightAware ADS-B
Wed 01:11:22 AM 39.6680 115.9170 273° West 365 420 21,700  Level FlightAware ADS-B
Wed 01:12:12 AM 39.6720 115.8240 273° West 365 420 21,700  Level FlightAware ADS-B
Wed 01:12:52 AM 39.6750 115.7490 273° West 365 420 21,700  Level FlightAware ADS-B
Wed 01:13:32 AM 39.6780 115.6750 273° West 365 420 21,700  Level FlightAware ADS-B
Wed 01:14:12 AM 39.6810 115.6000 273° West 365 420 21,700  Level FlightAware ADS-B
Wed 01:16:00 AM 39.5896 115.4667 228° Southwest  Level Estimated
Wed 01:17:00 AM 39.5387 115.3928 228° Southwest  Level Estimated
Wed 01:18:00 AM 39.4878 115.3191 228° Southwest  Level Estimated
Wed 01:19:00 AM 39.4369 115.2454 228° Southwest  Level Estimated
Wed 01:20:00 AM 39.3858 115.1718 228° Southwest  Level Estimated
Wed 01:21:00 AM 39.3348 115.0984 228° Southwest  Level Estimated
Wed 01:22:00 AM 39.2837 115.0250 228° Southwest  Level Estimated
Wed 01:23:00 AM 39.2326 114.9518 228° Southwest  Level Estimated
Wed 01:24:00 AM 39.1814 114.8786 228° Southwest  Level Estimated
Wed 01:25:00 AM 39.1302 114.8056 228° Southwest  Level Estimated
Wed 01:26:00 AM 39.0789 114.7327 228° Southwest  Level Estimated
Wed 01:27:00 AM 39.0276 114.6599 228° Southwest  Level Estimated
Wed 01:28:00 AM 38.9762 114.5872 228° Southwest  Level Estimated
Wed 01:29:00 AM 38.9248 114.5145 228° Southwest  Level Estimated
Wed 01:30:00 AM 38.8733 114.4420 228° Southwest  Level Estimated
Wed 01:31:00 AM 38.8218 114.3697 228° Southwest  Level Estimated
Wed 01:32:00 AM 38.7703 114.2974 228° Southwest  Level Estimated
Wed 01:33:00 AM 38.7187 114.2252 228° Southwest  Level Estimated
Wed 01:34:00 AM 38.6671 114.1531 227° Southwest  Level Estimated
Wed 01:35:00 AM 38.6154 114.0811 227° Southwest  Level Estimated
Wed 01:36:00 AM 38.5637 114.0092 227° Southwest  Level Estimated
Wed 01:37:00 AM 38.5119 113.9375 227° Southwest  Level Estimated
Wed 01:38:00 AM 38.4601 113.8658 227° Southwest  Level Estimated
Wed 01:39:00 AM 38.4083 113.7942 227° Southwest  Level Estimated
Wed 01:40:00 AM 38.3564 113.7228 227° Southwest  Level Estimated
Wed 01:41:00 AM 38.3044 113.6514 227° Southwest  Level Estimated
Wed 01:42:00 AM 38.2524 113.5801 227° Southwest  Level Estimated
Wed 01:43:00 AM 38.2004 113.5090 227° Southwest  Level Estimated
Wed 01:44:00 AM 38.1483 113.4379 227° Southwest  Level Estimated
Wed 01:45:00 AM 38.0962 113.3670 227° Southwest  Level Estimated
Wed 01:46:00 AM 38.0441 113.2961 227° Southwest  Level Estimated
Wed 01:47:00 AM 37.9919 113.2254 227° Southwest  Level Estimated
Wed 01:48:00 AM 37.9397 113.1547 227° Southwest  Level Estimated
Wed 01:49:00 AM 37.8874 113.0842 227° Southwest  Level Estimated
Wed 01:50:00 AM 37.8350 113.0137 227° Southwest  Level Estimated
Wed 01:51:00 AM 37.7827 112.9434 227° Southwest  Level Estimated
Wed 01:52:00 AM 37.7303 112.8731 227° Southwest  Level Estimated
Wed 01:53:00 AM 37.6778 112.8030 227° Southwest  Level Estimated
Wed 01:54:00 AM 37.6253 112.7329 227° Southwest  Level Estimated
Wed 01:55:00 AM 37.5728 112.6630 227° Southwest  Level Estimated
Wed 01:56:00 AM 37.5202 112.5931 227° Southwest  Level Estimated
Wed 01:57:00 AM 37.4676 112.5234 226° Southwest  Level Estimated
Wed 01:58:00 AM 37.4150 112.4537 226° Southwest  Level Estimated
Wed 01:59:00 AM 37.3623 112.3841 226° Southwest  Level Estimated
Wed 02:00:00 AM 37.3096 112.3147 226° Southwest  Level Estimated
Wed 02:01:00 AM 37.2568 112.2453 226° Southwest  Level Estimated
Wed 02:02:00 AM 37.2039 112.1760 226° Southwest  Level Estimated
Wed 02:03:00 AM 37.1511 112.1069 226° Southwest  Level Estimated
Wed 02:04:00 AM 37.0982 112.0378 226° Southwest  Level Estimated
Wed 02:05:00 AM 37.0452 111.9688 226° Southwest  Level Estimated
Wed 02:06:00 AM 36.9923 111.8999 226° Southwest  Level Estimated
Wed 02:07:00 AM 36.9393 111.8312 226° Southwest  Level Estimated
Wed 02:08:00 AM 36.8862 111.7625 226° Southwest  Level Estimated
Wed 02:09:00 AM 36.8331 111.6939 226° Southwest  Level Estimated
Wed 02:10:00 AM 36.7800 111.6254 226° Southwest  Level Estimated
Wed 02:11:00 AM 36.7268 111.5570 226° Southwest  Level Estimated
Wed 02:12:00 AM 36.6736 111.4887 226° Southwest  Level Estimated
Wed 02:13:00 AM 36.6203 111.4204 226° Southwest  Level Estimated
Wed 02:14:00 AM 36.5670 111.3523 226° Southwest  Level Estimated
Wed 02:15:00 AM 36.5137 111.2843 226° Southwest  Level Estimated
Wed 02:16:00 AM 36.4603 111.2164 226° Southwest  Level Estimated
Wed 02:17:00 AM 36.4069 111.1485 226° Southwest  Level Estimated
Wed 02:18:00 AM 36.3535 111.0808 226° Southwest  Level Estimated
Wed 02:19:00 AM 36.3000 111.0131 226° Southwest  Level Estimated
Wed 02:20:00 AM 36.2465 110.9456 226° Southwest  Level Estimated
Wed 02:21:00 AM 36.1929 110.8781 225° Southwest  Level Estimated
Wed 02:22:00 AM 36.1393 110.8107 225° Southwest  Level Estimated
Wed 02:23:00 AM 36.0857 110.7434 225° Southwest  Level Estimated
Wed 02:24:00 AM 36.0320 110.6762 225° Southwest  Level Estimated
Wed 02:25:00 AM 35.9783 110.6091 225° Southwest  Level Estimated
Wed 02:26:00 AM 35.9246 110.5421 225° Southwest  Level Estimated
Wed 02:27:00 AM 35.8708 110.4752 225° Southwest  Level Estimated
Wed 02:28:00 AM 35.8170 110.4084 225° Southwest  Level Estimated
Wed 02:29:00 AM 35.7631 110.3416 225° Southwest  Level Estimated
Wed 02:30:00 AM 35.7092 110.2750 225° Southwest  Level Estimated
Wed 02:31:00 AM 35.6553 110.2084 225° Southwest  Level Estimated
Wed 02:32:00 AM 35.6013 110.1420 225° Southwest  Level Estimated
Wed 02:33:00 AM 35.5473 110.0756 225° Southwest  Level Estimated
Wed 02:34:00 AM 35.4933 110.0093 225° Southwest  Level Estimated
Wed 02:35:00 AM 35.4392 109.9431 225° Southwest  Level Estimated
Wed 02:36:00 AM 35.3851 109.8770 225° Southwest  Level Estimated
Wed 02:37:00 AM 35.3309 109.8110 225° Southwest  Level Estimated
Wed 02:38:00 AM 35.2767 109.7450 225° Southwest  Level Estimated
Wed 02:39:00 AM 35.2225 109.6792 225° Southwest  Level Estimated
Wed 02:40:00 AM 35.1683 109.6134 225° Southwest  Level Estimated
Wed 02:41:00 AM 35.1140 109.5478 225° Southwest  Level Estimated
Wed 02:42:00 AM 35.0597 109.4822 225° Southwest  Level Estimated
Wed 02:43:00 AM 35.0053 109.4167 225° Southwest  Level Estimated
Wed 02:44:00 AM 34.9509 109.3513 225° Southwest  Level Estimated
Wed 02:45:00 AM 34.8965 109.2860 225° Southwest  Level Estimated
Wed 02:46:00 AM 34.8420 109.2207 225° Southwest  Level Estimated
Wed 02:47:00 AM 34.7875 109.1556 224° Southwest  Level Estimated
Wed 02:48:00 AM 34.7329 109.0905 224° Southwest  Level Estimated
Wed 02:49:00 AM 34.6784 109.0255 224° Southwest  Level Estimated
Wed 02:50:00 AM 34.6238 108.9606 224° Southwest  Level Estimated
Wed 02:51:00 AM 34.5691 108.8959 224° Southwest  Level Estimated
Wed 02:52:00 AM 34.5145 108.8311 224° Southwest  Level Estimated
Wed 02:53:00 AM 34.4598 108.7665 224° Southwest  Level Estimated
Wed 02:54:00 AM 34.4471 108.7516 224° Southwest  Level Estimated
Wed 02:55:00 AM 34.4471 108.7516 121° Southeast  Level Estimated
Wed 02:56:00 AM 34.4471 108.7516 121° Southeast  Level Estimated
Wed 02:57:00 AM 34.4471 108.7516 121° Southeast  Level Estimated
Wed 02:58:00 AM 34.4471 108.7516 121° Southeast  Level Estimated
Wed 02:59:00 AM 34.4471 108.7516 121° Southeast  Level Estimated
Wed 03:00:00 AM 34.4471 108.7516 121° Southeast  Level Estimated
Wed 03:01:00 AM 34.4471 108.7516 121° Southeast  Level Estimated
Wed 03:02:00 AM 34.4471 108.7516 121° Southeast  Level Estimated
Wed 03:03:00 AM 34.4471 108.7516 121° Southeast  Level Estimated
Wed 03:04:00 AM 34.4471 108.7516 121° Southeast  Level Estimated
Wed 03:05:00 AM 34.4471 108.7516 121° Southeast  Level Estimated
Wed 03:06:00 AM 34.4471 108.7516 121° Southeast  Level Estimated
Wed 03:07:00 AM 34.4471 108.7516 121° Southeast  Level Estimated
Wed 03:08:00 AM 34.4471 108.7516 121° Southeast  Level Estimated

Login

Don't have an account? Register now (free) for customized features, flight alerts, and more!